Time;durP1;ratioP1;P1;durP2;ratioP2;P2;SDS_P1;SDS_P2;PMS_P1;PMS_P2;Temp;Humidity;BMP_temperature;BMP_pressure;BME280_temperature;BME280_humidity;BME280_pressure;Samples;Min_cycle;Max_cycle;Signal;HPM_P1;HPM_P2
2022/08/26 00:01:45;;;;;;;12.17;6.57;;;;;;;;;;5092850;28;20456;-70
2022/08/26 00:04:15;;;;;;;11.13;7.03;;;;;;;;;;5092655;28;20459;-71
2022/08/26 00:06:45;;;;;;;9.23;6.33;;;;;;;;;;5093900;28;20462;-71
2022/08/26 00:09:12;;;;;;;11.20;7.97;;;;;;;;;;5092567;28;20447;-70
2022/08/26 00:11:40;;;;;;;9.03;5.80;;;;;;;;;;5093756;28;20467;-70
2022/08/26 00:14:07;;;;;;;9.03;7.23;;;;;;;;;;5092133;28;20448;-70
2022/08/26 00:16:34;;;;;;;15.97;7.97;;;;;;;;;;5093650;28;21053;-70
2022/08/26 00:19:01;;;;;;;15.77;6.80;;;;;;;;;;5093531;28;20455;-69
2022/08/26 00:21:29;;;;;;;8.00;7.20;;;;;;;;;;5092626;28;20452;-69
2022/08/26 00:23:56;;;;;;;13.40;6.83;;;;;;;;;;5093977;28;20470;-70
2022/08/26 00:26:23;;;;;;;11.97;6.60;;;;;;;;;;5092943;28;20459;-70
2022/08/26 00:28:51;;;;;;;8.43;6.40;;;;;;;;;;5093131;28;20452;-70
2022/08/26 00:31:18;;;;;;;7.90;6.27;;;;;;;;;;5093189;28;20448;-69
2022/08/26 00:33:45;;;;;;;11.90;6.00;;;;;;;;;;5093092;28;20850;-69
2022/08/26 00:36:12;;;;;;;8.23;6.10;;;;;;;;;;5093620;28;20777;-69
2022/08/26 00:38:39;;;;;;;10.73;6.90;;;;;;;;;;5093266;28;20710;-70
2022/08/26 00:41:06;;;;;;;12.67;7.03;;;;;;;;;;5093007;28;20519;-70
2022/08/26 00:43:34;;;;;;;9.10;6.50;;;;;;;;;;5092756;28;20549;-70
2022/08/26 00:46:05;;;;;;;13.77;8.30;;;;;;;;;;5092787;28;20447;-70
2022/08/26 00:48:33;;;;;;;14.17;7.13;;;;;;;;;;5093472;28;20505;-70
2022/08/26 00:51:01;;;;;;;9.47;5.87;;;;;;;;;;5093288;28;20459;-70
2022/08/26 00:53:30;;;;;;;18.80;7.63;;;;;;;;;;5090338;28;20459;-70
2022/08/26 00:56:00;;;;;;;10.63;6.30;;;;;;;;;;5091860;28;20481;-70
2022/08/26 00:58:28;;;;;;;11.73;6.73;;;;;;;;;;5091484;28;20971;-70
2022/08/26 01:00:55;;;;;;;10.73;6.70;;;;;;;;;;5092131;28;20436;-70
2022/08/26 01:03:24;;;;;;;9.63;6.00;;;;;;;;;;5091774;28;20497;-70
2022/08/26 01:05:54;;;;;;;14.37;6.60;;;;;;;;;;5091374;28;20463;-70
2022/08/26 01:08:21;;;;;;;10.53;7.17;;;;;;;;;;5091581;28;20479;-70
2022/08/26 01:10:48;;;;;;;12.80;8.07;;;;;;;;;;5091351;28;20872;-70
2022/08/26 01:13:18;;;;;;;10.33;7.17;;;;;;;;;;5092143;28;20525;-70
2022/08/26 01:15:46;;;;;;;11.07;7.30;;;;;;;;;;5096460;28;20502;-70
2022/08/26 01:18:14;;;;;;;10.60;7.33;;;;;;;;;;5095825;28;20986;-70
2022/08/26 01:20:46;;;;;;;7.70;6.40;;;;;;;;;;5095868;28;20697;-70
2022/08/26 01:23:14;;;;;;;12.80;7.50;;;;;;;;;;5094708;28;20451;-69
2022/08/26 01:25:42;;;;;;;11.57;7.70;;;;;;;;;;5095405;28;20479;-70
2022/08/26 01:28:13;;;;;;;10.70;7.90;;;;;;;;;;5095744;28;20456;-70
2022/08/26 01:30:41;;;;;;;13.73;7.17;;;;;;;;;;5094205;28;20524;-70
2022/08/26 01:33:11;;;;;;;10.00;7.20;;;;;;;;;;5094613;28;20452;-70
2022/08/26 01:35:38;;;;;;;8.43;6.00;;;;;;;;;;5094429;28;20919;-70
2022/08/26 01:38:05;;;;;;;12.70;7.30;;;;;;;;;;5096226;28;20491;-70
2022/08/26 01:40:36;;;;;;;10.90;6.67;;;;;;;;;;5094072;28;20451;-70
2022/08/26 01:43:04;;;;;;;11.60;8.00;;;;;;;;;;5094712;28;20454;-70
2022/08/26 01:45:32;;;;;;;10.80;7.27;;;;;;;;;;5094185;28;20447;-70
2022/08/26 01:48:02;;;;;;;12.57;8.57;;;;;;;;;;5093897;28;20479;-70
2022/08/26 01:50:30;;;;;;;10.97;8.33;;;;;;;;;;5094988;28;20520;-70
2022/08/26 01:52:58;;;;;;;10.30;7.20;;;;;;;;;;5094034;28;20721;-70
2022/08/26 01:55:26;;;;;;;10.93;7.30;;;;;;;;;;5095080;28;20455;-70
2022/08/26 01:57:57;;;;;;;15.63;8.20;;;;;;;;;;5094162;28;20551;-70
2022/08/26 02:00:25;;;;;;;12.30;7.20;;;;;;;;;;5094844;28;20490;-70
2022/08/26 02:03:15;;;;;;;9.90;7.20;;;;;;;;;;5093242;28;20456;-70
2022/08/26 02:05:42;;;;;;;11.90;7.53;;;;;;;;;;5094827;28;20571;-69
2022/08/26 02:08:09;;;;;;;8.20;7.37;;;;;;;;;;5094852;28;20924;-70
2022/08/26 02:10:37;;;;;;;11.93;7.30;;;;;;;;;;5093646;28;20549;-70
2022/08/26 02:13:07;;;;;;;11.37;7.83;;;;;;;;;;5094520;28;20494;-69
2022/08/26 02:15:34;;;;;;;7.67;6.87;;;;;;;;;;5094351;28;20474;-70
2022/08/26 02:18:03;;;;;;;7.90;6.57;;;;;;;;;;5093138;28;20813;-70
2022/08/26 02:20:30;;;;;;;11.67;7.23;;;;;;;;;;5094889;28;21041;-69
2022/08/26 02:22:57;;;;;;;11.20;7.13;;;;;;;;;;5093079;28;20463;-70
2022/08/26 02:25:25;;;;;;;10.63;8.13;;;;;;;;;;5094364;28;20444;-70
2022/08/26 02:27:53;;;;;;;11.43;7.40;;;;;;;;;;5093145;28;20459;-69
2022/08/26 02:30:23;;;;;;;7.80;6.70;;;;;;;;;;5093457;28;20846;-70
2022/08/26 02:32:50;;;;;;;7.40;6.57;;;;;;;;;;5092827;28;20482;-70
2022/08/26 02:35:19;;;;;;;10.70;7.50;;;;;;;;;;5094537;28;20729;-69
2022/08/26 02:37:46;;;;;;;10.37;7.27;;;;;;;;;;5094028;28;20487;-70
2022/08/26 02:40:15;;;;;;;12.07;6.43;;;;;;;;;;5093786;28;20520;-70
2022/08/26 02:42:42;;;;;;;10.10;7.50;;;;;;;;;;5093474;28;20538;-70
2022/08/26 02:45:10;;;;;;;10.83;7.13;;;;;;;;;;5095019;28;20444;-69
2022/08/26 02:47:38;;;;;;;12.10;7.20;;;;;;;;;;5092856;28;20456;-70
2022/08/26 02:50:08;;;;;;;8.47;6.77;;;;;;;;;;5094008;28;20466;-69
2022/08/26 02:52:35;;;;;;;12.10;7.73;;;;;;;;;;5093134;28;20455;-69
2022/08/26 02:55:02;;;;;;;9.07;6.57;;;;;;;;;;5094006;28;20479;-71
2022/08/26 02:57:29;;;;;;;14.90;8.23;;;;;;;;;;5094756;28;20492;-69
2022/08/26 02:59:57;;;;;;;10.20;8.00;;;;;;;;;;5092383;28;20444;-69
2022/08/26 03:02:24;;;;;;;8.53;7.57;;;;;;;;;;5093248;28;20539;-69
2022/08/26 03:04:52;;;;;;;13.40;8.57;;;;;;;;;;5092239;28;20500;-69
2022/08/26 03:07:22;;;;;;;11.60;8.50;;;;;;;;;;5093374;28;20462;-69
2022/08/26 03:09:49;;;;;;;13.80;8.63;;;;;;;;;;5093461;28;20515;-68
2022/08/26 03:12:16;;;;;;;11.00;8.83;;;;;;;;;;5092899;28;20458;-70
2022/08/26 03:14:43;;;;;;;10.90;8.87;;;;;;;;;;5094323;28;21075;-69
2022/08/26 03:17:10;;;;;;;13.80;8.70;;;;;;;;;;5093521;28;20545;-69
2022/08/26 03:19:37;;;;;;;10.73;7.37;;;;;;;;;;5093621;28;20521;-69
2022/08/26 03:22:06;;;;;;;9.83;7.27;;;;;;;;;;5093593;28;20860;-69
2022/08/26 03:24:33;;;;;;;11.00;6.80;;;;;;;;;;5094096;28;20460;-69
2022/08/26 03:27:01;;;;;;;13.30;8.27;;;;;;;;;;5094176;28;20451;-69
2022/08/26 03:32:15;;;;;;;9.70;7.80;;;;;;;;;;5094095;28;20435;-69
2022/08/26 03:34:42;;;;;;;9.17;7.30;;;;;;;;;;5093574;28;20549;-69
2022/08/26 03:37:10;;;;;;;9.80;7.30;;;;;;;;;;5092637;28;20781;-69
2022/08/26 03:39:37;;;;;;;10.30;8.20;;;;;;;;;;5093363;28;20451;-69
2022/08/26 03:42:05;;;;;;;10.30;7.37;;;;;;;;;;5093253;28;20550;-69
2022/08/26 03:44:36;;;;;;;16.60;7.73;;;;;;;;;;5074068;28;20727;-69
2022/08/26 03:47:03;;;;;;;10.37;8.37;;;;;;;;;;5073162;28;20453;-69
2022/08/26 03:49:33;;;;;;;12.30;8.50;;;;;;;;;;5074077;28;20444;-69
2022/08/26 03:52:00;;;;;;;21.83;8.90;;;;;;;;;;5072955;28;20731;-69
2022/08/26 03:54:27;;;;;;;12.60;8.50;;;;;;;;;;5071984;28;20563;-70
2022/08/26 03:56:54;;;;;;;9.27;7.37;;;;;;;;;;5071556;28;20499;-69
2022/08/26 03:59:21;;;;;;;10.27;8.17;;;;;;;;;;5071388;28;21026;-70
2022/08/26 04:01:48;;;;;;;10.60;7.33;;;;;;;;;;5071801;28;20545;-71
2022/08/26 04:04:15;;;;;;;10.87;9.17;;;;;;;;;;5071403;28;20905;-69
2022/08/26 04:06:43;;;;;;;13.57;8.90;;;;;;;;;;5071781;28;20456;-69
2022/08/26 04:09:12;;;;;;;9.47;8.43;;;;;;;;;;5071793;28;20535;-69
2022/08/26 04:11:40;;;;;;;11.70;8.67;;;;;;;;;;5071776;28;20756;-69
2022/08/26 04:14:09;;;;;;;12.60;9.30;;;;;;;;;;5070569;28;20469;-70
2022/08/26 04:16:36;;;;;;;10.60;7.83;;;;;;;;;;5085264;28;20455;-69
2022/08/26 04:19:03;;;;;;;16.97;9.30;;;;;;;;;;5091638;28;20479;-69
2022/08/26 04:21:30;;;;;;;17.77;9.87;;;;;;;;;;5091204;28;20455;-69
2022/08/26 04:23:57;;;;;;;13.63;9.67;;;;;;;;;;5090609;28;20509;-69
2022/08/26 04:26:24;;;;;;;10.73;8.93;;;;;;;;;;5091046;28;20569;-69
2022/08/26 04:28:53;;;;;;;10.90;8.97;;;;;;;;;;5090347;28;20451;-69
2022/08/26 04:31:21;;;;;;;11.67;8.40;;;;;;;;;;5090814;28;20879;-69
2022/08/26 04:33:49;;;;;;;17.50;9.27;;;;;;;;;;5091371;28;20735;-70
2022/08/26 04:36:16;;;;;;;11.57;8.77;;;;;;;;;;5090398;28;20686;-69
2022/08/26 04:38:44;;;;;;;14.47;9.50;;;;;;;;;;5089694;28;20531;-70
2022/08/26 04:41:12;;;;;;;11.20;9.20;;;;;;;;;;5090733;28;20491;-71
2022/08/26 04:43:40;;;;;;;14.00;8.77;;;;;;;;;;5090166;28;20532;-70
2022/08/26 04:46:09;;;;;;;13.70;8.60;;;;;;;;;;5090445;28;20450;-70
2022/08/26 04:48:36;;;;;;;13.60;8.60;;;;;;;;;;5093080;28;20478;-70
2022/08/26 04:51:03;;;;;;;11.50;8.17;;;;;;;;;;5095897;28;20455;-70
2022/08/26 04:53:31;;;;;;;11.80;9.10;;;;;;;;;;5095413;28;20506;-70
2022/08/26 04:55:58;;;;;;;19.50;7.87;;;;;;;;;;5094123;28;20934;-69
2022/08/26 04:58:28;;;;;;;12.20;8.27;;;;;;;;;;5093939;28;20621;-69
2022/08/26 05:00:55;;;;;;;10.30;8.13;;;;;;;;;;5094121;28;20453;-71
2022/08/26 05:03:26;;;;;;;13.20;8.70;;;;;;;;;;5095137;28;20849;-69
2022/08/26 05:05:54;;;;;;;10.17;8.20;;;;;;;;;;5095053;28;20459;-69
2022/08/26 05:08:22;;;;;;;12.23;9.20;;;;;;;;;;5093748;28;20884;-70
2022/08/26 05:10:50;;;;;;;11.20;8.43;;;;;;;;;;5092616;28;20448;-69
2022/08/26 05:13:19;;;;;;;12.60;8.70;;;;;;;;;;5091221;28;20467;-70
2022/08/26 05:15:47;;;;;;;11.10;8.80;;;;;;;;;;5092898;28;20501;-70
2022/08/26 05:18:15;;;;;;;15.20;10.00;;;;;;;;;;5090618;28;20544;-69
2022/08/26 05:20:45;;;;;;;10.70;8.17;;;;;;;;;;5092084;28;20796;-69
2022/08/26 05:23:15;;;;;;;13.43;8.70;;;;;;;;;;5090891;28;20730;-70
2022/08/26 05:25:43;;;;;;;14.50;8.73;;;;;;;;;;5092044;28;20523;-69
2022/08/26 05:28:11;;;;;;;11.67;8.57;;;;;;;;;;5091591;28;21019;-70
2022/08/26 05:30:49;;;;;;;13.70;9.43;;;;;;;;;;5091236;28;20447;-69
2022/08/26 05:33:16;;;;;;;15.43;9.17;;;;;;;;;;5088894;28;20866;-70
2022/08/26 05:35:45;;;;;;;12.67;8.87;;;;;;;;;;5089535;28;20466;-69
2022/08/26 05:38:17;;;;;;;11.60;8.40;;;;;;;;;;5090037;28;20563;-69
2022/08/26 05:40:46;;;;;;;18.30;10.10;;;;;;;;;;5089622;28;20475;-70
2022/08/26 05:43:14;;;;;;;12.20;8.37;;;;;;;;;;5088502;28;20872;-70
2022/08/26 05:45:42;;;;;;;13.33;9.20;;;;;;;;;;5087828;28;20543;-70
2022/08/26 05:48:09;;;;;;;10.40;8.70;;;;;;;;;;5090240;28;20893;-70
2022/08/26 05:50:37;;;;;;;15.13;8.97;;;;;;;;;;5090000;28;20547;-70
2022/08/26 05:53:06;;;;;;;16.17;10.63;;;;;;;;;;5088340;28;21175;-70
2022/08/26 05:55:33;;;;;;;24.67;12.23;;;;;;;;;;5090606;28;20501;-70
2022/08/26 05:58:00;;;;;;;16.40;10.27;;;;;;;;;;5090297;28;20482;-70
2022/08/26 06:00:30;;;;;;;31.63;11.00;;;;;;;;;;5090430;28;20495;-70
2022/08/26 06:03:00;;;;;;;17.60;11.73;;;;;;;;;;5090575;28;20705;-70
2022/08/26 06:05:28;;;;;;;14.30;9.67;;;;;;;;;;5090326;28;20448;-70
2022/08/26 06:08:13;;;;;;;14.80;8.83;;;;;;;;;;5092700;28;20450;-70
2022/08/26 06:10:45;;;;;;;15.17;8.90;;;;;;;;;;5092338;28;20466;-70
2022/08/26 06:13:14;;;;;;;30.30;15.60;;;;;;;;;;5092182;28;20443;-71
2022/08/26 06:15:42;;;;;;;21.30;11.93;;;;;;;;;;5091772;28;20459;-71
2022/08/26 06:18:09;;;;;;;14.53;10.23;;;;;;;;;;5092763;28;20544;-69
2022/08/26 06:20:36;;;;;;;39.20;17.43;;;;;;;;;;5092081;28;20856;-71
2022/08/26 06:25:51;;;;;;;25.27;13.50;;;;;;;;;;5093412;28;20438;-71
2022/08/26 06:28:18;;;;;;;12.57;10.40;;;;;;;;;;5091774;28;20529;-71
2022/08/26 06:30:45;;;;;;;17.57;10.50;;;;;;;;;;5084360;28;20453;-69
2022/08/26 06:33:12;;;;;;;14.43;10.77;;;;;;;;;;5072231;28;20459;-71
2022/08/26 06:35:40;;;;;;;16.50;10.20;;;;;;;;;;5071317;28;20461;-71
2022/08/26 06:38:08;;;;;;;14.53;10.80;;;;;;;;;;5092440;28;20487;-71
2022/08/26 06:40:40;;;;;;;12.07;10.07;;;;;;;;;;5092153;28;20462;-71
2022/08/26 06:43:09;;;;;;;13.83;11.03;;;;;;;;;;5091798;28;20553;-71
2022/08/26 06:45:37;;;;;;;16.40;10.50;;;;;;;;;;5092116;28;20557;-71
2022/08/26 06:48:06;;;;;;;12.90;10.33;;;;;;;;;;5092459;28;20926;-71
2022/08/26 06:50:36;;;;;;;12.77;11.47;;;;;;;;;;5091390;28;21098;-71
2022/08/26 06:53:03;;;;;;;17.83;11.43;;;;;;;;;;5073616;28;20452;-71
2022/08/26 06:55:31;;;;;;;13.90;10.93;;;;;;;;;;5073092;28;20464;-71
2022/08/26 06:57:58;;;;;;;15.57;11.20;;;;;;;;;;5072824;28;20911;-71
2022/08/26 07:00:30;;;;;;;13.03;11.17;;;;;;;;;;5073308;28;20464;-72
2022/08/26 07:02:57;;;;;;;17.67;10.80;;;;;;;;;;5086881;28;20444;-71
2022/08/26 07:05:28;;;;;;;19.03;10.83;;;;;;;;;;5091371;28;20624;-71
2022/08/26 07:07:56;;;;;;;17.20;12.37;;;;;;;;;;5091956;28;20451;-71
2022/08/26 07:10:24;;;;;;;28.00;15.43;;;;;;;;;;5086106;28;20460;-73
2022/08/26 07:12:54;;;;;;;27.70;14.37;;;;;;;;;;5071580;28;20875;-70
2022/08/26 07:15:22;;;;;;;19.23;14.03;;;;;;;;;;5072452;28;20464;-71
2022/08/26 07:17:56;;;;;;;36.10;16.60;;;;;;;;;;5081406;28;20490;-71
2022/08/26 07:20:27;;;;;;;49.63;36.00;;;;;;;;;;5081604;28;20452;-71
2022/08/26 07:22:58;;;;;;;20.40;15.17;;;;;;;;;;5075828;28;20813;-71
2022/08/26 07:25:26;;;;;;;91.80;80.03;;;;;;;;;;5089900;28;20474;-69
2022/08/26 07:27:57;;;;;;;16.33;13.17;;;;;;;;;;5089909;27;20447;-70
2022/08/26 07:30:50;;;;;;;22.83;13.63;;;;;;;;;;5090924;28;20887;-69
2022/08/26 07:33:18;;;;;;;19.83;13.67;;;;;;;;;;5091367;28;20517;-69
2022/08/26 07:35:45;;;;;;;19.90;13.43;;;;;;;;;;5091276;28;20451;-71
2022/08/26 07:38:13;;;;;;;17.20;12.03;;;;;;;;;;5090928;28;20488;-71
2022/08/26 07:40:41;;;;;;;20.23;13.33;;;;;;;;;;5090839;28;21170;-71
2022/08/26 07:43:08;;;;;;;19.90;12.57;;;;;;;;;;5090497;28;20455;-71
2022/08/26 07:45:36;;;;;;;14.40;11.33;;;;;;;;;;5092070;28;20475;-69
2022/08/26 07:48:08;;;;;;;18.50;10.90;;;;;;;;;;5092233;28;20486;-72
2022/08/26 07:50:38;;;;;;;15.60;13.80;;;;;;;;;;5088232;28;20467;-71
2022/08/26 07:53:07;;;;;;;15.87;11.37;;;;;;;;;;5089252;28;20780;-71
2022/08/26 07:55:40;;;;;;;14.17;10.23;;;;;;;;;;5085873;28;20486;-71
2022/08/26 07:58:10;;;;;;;13.63;11.80;;;;;;;;;;5089895;28;20919;-72
2022/08/26 08:00:40;;;;;;;13.90;10.33;;;;;;;;;;5089510;28;21149;-72
2022/08/26 08:03:07;;;;;;;15.83;11.20;;;;;;;;;;5090740;28;20440;-71
2022/08/26 08:05:42;;;;;;;16.40;9.67;;;;;;;;;;5090621;28;20890;-71
2022/08/26 08:08:10;;;;;;;10.80;8.80;;;;;;;;;;5088648;28;20862;-70
2022/08/26 08:10:37;;;;;;;18.00;9.77;;;;;;;;;;5089091;28;20464;-70
2022/08/26 08:13:07;;;;;;;10.80;9.70;;;;;;;;;;5085001;28;20928;-70
2022/08/26 08:15:36;;;;;;;13.93;9.40;;;;;;;;;;5086860;28;20472;-70
2022/08/26 08:18:05;;;;;;;18.30;9.97;;;;;;;;;;5090140;28;20537;-70
2022/08/26 08:20:33;;;;;;;18.23;9.07;;;;;;;;;;5089560;28;20455;-70
2022/08/26 08:23:03;;;;;;;15.70;10.37;;;;;;;;;;5080108;28;20464;-70
2022/08/26 08:25:31;;;;;;;18.07;10.00;;;;;;;;;;5088204;28;20471;-69
2022/08/26 08:27:59;;;;;;;12.60;9.33;;;;;;;;;;5088678;28;20507;-71
2022/08/26 08:30:26;;;;;;;18.60;9.20;;;;;;;;;;5089470;28;20471;-71
2022/08/26 08:32:54;;;;;;;14.00;9.13;;;;;;;;;;5086181;28;21086;-71
2022/08/26 08:35:22;;;;;;;18.63;6.97;;;;;;;;;;5078670;28;21060;-70
2022/08/26 08:37:53;;;;;;;10.57;8.23;;;;;;;;;;5077558;28;20992;-70
2022/08/26 08:40:21;;;;;;;11.63;7.50;;;;;;;;;;5082784;28;20463;-71
2022/08/26 08:42:54;;;;;;;9.80;7.33;;;;;;;;;;5090098;28;20471;-71
2022/08/26 08:45:23;;;;;;;16.00;7.97;;;;;;;;;;5090993;28;20526;-71
2022/08/26 08:47:51;;;;;;;11.83;7.53;;;;;;;;;;5083309;28;20485;-71
2022/08/26 08:50:23;;;;;;;13.67;8.97;;;;;;;;;;5080877;28;20563;-72
2022/08/26 08:52:52;;;;;;;22.63;9.60;;;;;;;;;;5086228;28;20459;-71
2022/08/26 08:55:19;;;;;;;14.20;7.93;;;;;;;;;;5091293;27;20483;-71
2022/08/26 08:57:53;;;;;;;14.03;8.20;;;;;;;;;;5090931;28;20479;-71
2022/08/26 09:00:21;;;;;;;12.10;7.93;;;;;;;;;;5089971;28;20451;-71
2022/08/26 09:02:55;;;;;;;13.73;7.53;;;;;;;;;;5084317;28;20464;-71
2022/08/26 09:05:30;;;;;;;10.03;7.77;;;;;;;;;;5084199;28;20538;-71
2022/08/26 09:08:01;;;;;;;13.47;7.23;;;;;;;;;;5087834;28;20447;-72
2022/08/26 09:10:34;;;;;;;15.63;9.40;;;;;;;;;;5084496;28;20835;-70
2022/08/26 09:13:08;;;;;;;11.40;7.40;;;;;;;;;;5081175;28;20437;-70
2022/08/26 09:15:50;;;;;;;14.57;9.17;;;;;;;;;;5077618;28;20476;-70
2022/08/26 09:18:30;;;;;;;8.23;7.07;;;;;;;;;;5076795;28;20480;-70
2022/08/26 09:20:59;;;;;;;16.47;7.20;;;;;;;;;;5077539;28;20464;-71
2022/08/26 09:23:26;;;;;;;13.83;8.00;;;;;;;;;;5074175;28;20932;-71
2022/08/26 09:25:55;;;;;;;12.90;8.07;;;;;;;;;;5069432;28;20492;-71
2022/08/26 09:28:24;;;;;;;16.10;9.40;;;;;;;;;;5073404;28;20444;-72
2022/08/26 09:31:00;;;;;;;20.80;8.77;;;;;;;;;;5080927;28;20452;-72
2022/08/26 09:33:28;;;;;;;31.43;12.07;;;;;;;;;;5085917;28;20469;-72
2022/08/26 09:36:13;;;;;;;20.03;9.03;;;;;;;;;;5089502;28;20549;-74
2022/08/26 09:38:44;;;;;;;22.37;8.73;;;;;;;;;;5093108;28;20727;-74
2022/08/26 09:41:21;;;;;;;15.40;8.47;;;;;;;;;;5093237;28;20703;-76
2022/08/26 09:43:55;;;;;;;17.20;8.00;;;;;;;;;;5090549;28;20559;-72
2022/08/26 09:46:26;;;;;;;23.17;8.03;;;;;;;;;;5087386;28;20475;-72
2022/08/26 09:48:53;;;;;;;22.70;10.97;;;;;;;;;;5072917;28;20453;-71
2022/08/26 09:51:27;;;;;;;13.17;6.97;;;;;;;;;;5092264;28;20462;-71
2022/08/26 09:53:55;;;;;;;14.20;7.17;;;;;;;;;;5092094;28;20447;-71
2022/08/26 09:56:30;;;;;;;18.33;8.03;;;;;;;;;;5082860;28;20469;-71
2022/08/26 09:59:02;;;;;;;10.57;7.40;;;;;;;;;;5083911;28;20478;-72
2022/08/26 10:01:33;;;;;;;12.07;6.50;;;;;;;;;;5083937;28;20454;-72
2022/08/26 10:04:09;;;;;;;18.67;7.73;;;;;;;;;;5087374;28;20459;-72
2022/08/26 10:06:41;;;;;;;13.97;6.40;;;;;;;;;;5081546;28;20603;-72
2022/08/26 10:09:11;;;;;;;20.53;6.57;;;;;;;;;;5088962;28;20478;-73
2022/08/26 10:11:40;;;;;;;13.33;7.30;;;;;;;;;;5078792;28;20460;-73
2022/08/26 10:14:10;;;;;;;15.10;5.63;;;;;;;;;;5091626;28;20938;-69
2022/08/26 10:16:46;;;;;;;16.47;7.10;;;;;;;;;;5083640;28;20553;-72
2022/08/26 10:19:19;;;;;;;17.93;7.90;;;;;;;;;;5081951;28;20669;-72
2022/08/26 10:21:51;;;;;;;20.23;7.97;;;;;;;;;;5088229;28;20562;-72
2022/08/26 10:24:21;;;;;;;25.90;8.13;;;;;;;;;;5089979;28;20893;-74
2022/08/26 10:26:52;;;;;;;16.23;7.30;;;;;;;;;;5082432;28;20465;-71
2022/08/26 10:29:21;;;;;;;19.43;7.30;;;;;;;;;;5080441;28;20487;-73
2022/08/26 10:31:55;;;;;;;12.90;6.77;;;;;;;;;;5087131;28;20507;-74
2022/08/26 10:34:24;;;;;;;17.63;6.57;;;;;;;;;;5079744;28;20542;-72
2022/08/26 10:36:55;;;;;;;21.93;6.20;;;;;;;;;;5085081;28;20484;-71
2022/08/26 10:39:25;;;;;;;19.03;6.70;;;;;;;;;;5090595;28;20814;-72
2022/08/26 10:41:59;;;;;;;19.00;9.07;;;;;;;;;;5090897;28;20478;-71
2022/08/26 10:44:26;;;;;;;13.30;6.33;;;;;;;;;;5084985;28;20513;-72
2022/08/26 10:46:59;;;;;;;25.27;16.43;;;;;;;;;;5089880;28;20474;-72
2022/08/26 10:49:27;;;;;;;13.27;5.83;;;;;;;;;;5085941;28;20959;-73
2022/08/26 10:52:00;;;;;;;12.40;7.10;;;;;;;;;;5080198;28;20471;-72
2022/08/26 10:54:38;;;;;;;15.00;6.20;;;;;;;;;;5085654;28;20524;-72
2022/08/26 10:57:14;;;;;;;16.83;5.80;;;;;;;;;;5085934;28;20471;-72
2022/08/26 10:59:51;;;;;;;19.70;7.37;;;;;;;;;;5083754;28;20520;-74
2022/08/26 11:02:25;;;;;;;28.43;18.63;;;;;;;;;;5088644;28;20566;-72
2022/08/26 11:04:55;;;;;;;16.20;6.73;;;;;;;;;;5078575;28;21048;-69
2022/08/26 11:07:36;;;;;;;19.00;7.17;;;;;;;;;;5082396;28;20864;-71
2022/08/26 11:10:06;;;;;;;12.63;7.33;;;;;;;;;;5088542;28;20558;-70
2022/08/26 11:12:48;;;;;;;19.13;7.80;;;;;;;;;;5083608;28;20479;-72
2022/08/26 11:15:37;;;;;;;22.20;6.83;;;;;;;;;;5085603;28;20750;-73
2022/08/26 11:18:13;;;;;;;14.47;6.30;;;;;;;;;;5077846;28;20566;-71
2022/08/26 11:20:46;;;;;;;11.90;6.63;;;;;;;;;;5081965;28;20580;-69
2022/08/26 11:23:32;;;;;;;19.27;6.77;;;;;;;;;;5087474;28;20463;-70
2022/08/26 11:26:15;;;;;;;16.70;7.93;;;;;;;;;;5081923;28;20512;-69
2022/08/26 11:28:44;;;;;;;8.93;6.30;;;;;;;;;;5088750;28;20560;-69
2022/08/26 11:31:13;;;;;;;15.87;8.33;;;;;;;;;;5077363;28;20471;-69
2022/08/26 11:33:49;;;;;;;13.30;6.67;;;;;;;;;;5069205;28;20463;-69
2022/08/26 11:36:34;;;;;;;19.20;6.50;;;;;;;;;;5089361;28;20463;-69
2022/08/26 11:39:02;;;;;;;14.63;7.60;;;;;;;;;;5070420;28;20483;-68
2022/08/26 11:41:30;;;;;;;16.70;7.73;;;;;;;;;;5080461;28;20475;-69
2022/08/26 11:43:58;;;;;;;14.63;10.50;;;;;;;;;;5088816;28;20474;-69
2022/08/26 11:46:27;;;;;;;9.57;6.23;;;;;;;;;;5076420;28;20472;-69
2022/08/26 11:49:00;;;;;;;8.70;5.77;;;;;;;;;;5082803;28;20520;-69
2022/08/26 11:51:28;;;;;;;13.07;5.93;;;;;;;;;;5081437;28;20477;-70
2022/08/26 11:54:09;;;;;;;16.10;6.83;;;;;;;;;;5077790;28;20472;-69
2022/08/26 11:56:37;;;;;;;12.17;5.53;;;;;;;;;;5085927;28;20904;-69
2022/08/26 11:59:08;;;;;;;11.87;5.87;;;;;;;;;;5083385;28;20931;-69
2022/08/26 12:01:42;;;;;;;12.13;6.37;;;;;;;;;;5084977;28;20464;-70
2022/08/26 12:04:17;;;;;;;23.90;7.13;;;;;;;;;;5084555;28;20455;-70
2022/08/26 12:06:46;;;;;;;12.20;4.93;;;;;;;;;;5084933;28;20447;-69
2022/08/26 12:09:20;;;;;;;12.60;5.10;;;;;;;;;;5085899;28;20453;-69
2022/08/26 12:11:47;;;;;;;18.30;6.63;;;;;;;;;;5079174;28;20574;-70
2022/08/26 12:14:17;;;;;;;14.43;5.83;;;;;;;;;;5088048;28;20471;-69
2022/08/26 12:16:44;;;;;;;16.93;5.70;;;;;;;;;;5071319;28;20544;-69
2022/08/26 12:19:25;;;;;;;18.83;8.43;;;;;;;;;;5083301;28;20905;-70
2022/08/26 12:21:55;;;;;;;11.67;5.10;;;;;;;;;;5081233;28;20448;-71
2022/08/26 12:24:26;;;;;;;10.53;5.43;;;;;;;;;;5074413;28;20542;-71
2022/08/26 12:27:04;;;;;;;12.53;6.27;;;;;;;;;;5091903;28;20861;-69
2022/08/26 12:29:35;;;;;;;17.57;6.40;;;;;;;;;;5087038;28;20467;-70
2022/08/26 12:32:12;;;;;;;30.73;16.30;;;;;;;;;;5081363;28;20460;-69
2022/08/26 12:34:41;;;;;;;13.87;5.83;;;;;;;;;;5089679;28;20501;-71
2022/08/26 12:37:10;;;;;;;8.83;5.47;;;;;;;;;;5088294;28;20458;-70
2022/08/26 12:39:39;;;;;;;16.63;6.50;;;;;;;;;;5078919;28;20483;-71
2022/08/26 12:42:22;;;;;;;11.90;5.60;;;;;;;;;;5089044;28;20570;-71
2022/08/26 12:44:57;;;;;;;29.70;15.00;;;;;;;;;;5089834;28;20575;-70
2022/08/26 12:47:30;;;;;;;18.87;7.37;;;;;;;;;;5088746;28;21090;-72
2022/08/26 12:50:05;;;;;;;16.40;5.80;;;;;;;;;;5088606;28;20490;-71
2022/08/26 12:52:35;;;;;;;13.17;6.13;;;;;;;;;;5086747;28;20459;-72
2022/08/26 12:55:19;;;;;;;10.80;5.23;;;;;;;;;;5088009;28;20458;-72
2022/08/26 12:57:50;;;;;;;16.13;6.60;;;;;;;;;;5080604;28;20832;-73
2022/08/26 13:00:26;;;;;;;12.80;6.00;;;;;;;;;;5079936;28;20447;-73
2022/08/26 13:02:53;;;;;;;15.20;5.43;;;;;;;;;;5090157;28;20444;-72
2022/08/26 13:05:22;;;;;;;13.30;5.20;;;;;;;;;;5089347;28;20451;-72
2022/08/26 13:08:07;;;;;;;17.17;5.57;;;;;;;;;;5085467;28;20452;-72
2022/08/26 13:10:36;;;;;;;11.73;5.00;;;;;;;;;;5088138;28;20459;-74
2022/08/26 13:13:03;;;;;;;18.13;4.73;;;;;;;;;;5092554;28;20458;-72
2022/08/26 13:15:30;;;;;;;10.07;4.73;;;;;;;;;;5092227;28;20900;-72
2022/08/26 13:17:58;;;;;;;10.17;5.23;;;;;;;;;;5092801;28;20479;-72
2022/08/26 13:20:25;;;;;;;125.30;99.97;;;;;;;;;;5093309;28;20486;-72
2022/08/26 13:22:53;;;;;;;14.63;5.87;;;;;;;;;;5090125;28;20904;-73
2022/08/26 13:25:21;;;;;;;14.60;5.30;;;;;;;;;;5093056;28;20443;-72
2022/08/26 13:27:49;;;;;;;14.83;4.90;;;;;;;;;;5082347;28;20447;-72
2022/08/26 13:30:16;;;;;;;14.20;4.90;;;;;;;;;;5094161;28;20448;-72
2022/08/26 13:32:43;;;;;;;13.20;4.80;;;;;;;;;;5091024;28;20523;-71
2022/08/26 13:35:11;;;;;;;16.37;5.30;;;;;;;;;;5073053;28;20539;-72
2022/08/26 13:37:39;;;;;;;18.00;5.10;;;;;;;;;;5079165;28;20573;-72
2022/08/26 13:40:09;;;;;;;13.30;4.87;;;;;;;;;;5090566;28;20436;-72
2022/08/26 13:42:42;;;;;;;9.90;4.23;;;;;;;;;;5085123;28;20539;-72
2022/08/26 13:45:12;;;;;;;16.93;5.70;;;;;;;;;;5082200;28;20453;-71
2022/08/26 13:47:39;;;;;;;12.53;5.60;;;;;;;;;;5072634;28;20514;-72
2022/08/26 13:50:08;;;;;;;13.13;5.70;;;;;;;;;;5071535;28;20467;-73
2022/08/26 13:52:35;;;;;;;17.10;5.57;;;;;;;;;;5071646;28;20534;-72
2022/08/26 13:55:03;;;;;;;13.73;5.93;;;;;;;;;;5079586;28;20467;-73
2022/08/26 13:57:33;;;;;;;11.13;6.20;;;;;;;;;;5092691;28;20504;-72
2022/08/26 14:00:00;;;;;;;8.93;4.47;;;;;;;;;;5092159;28;20486;-72
2022/08/26 14:02:29;;;;;;;10.27;4.70;;;;;;;;;;5092287;28;20693;-71
2022/08/26 14:04:57;;;;;;;19.23;5.83;;;;;;;;;;5092287;28;20486;-73
2022/08/26 14:07:25;;;;;;;15.10;7.80;;;;;;;;;;5090475;28;20459;-73
2022/08/26 14:09:52;;;;;;;10.97;6.80;;;;;;;;;;5091909;28;20470;-72
2022/08/26 14:12:22;;;;;;;18.87;5.97;;;;;;;;;;5082921;28;20468;-72
2022/08/26 14:14:49;;;;;;;15.40;5.57;;;;;;;;;;5093141;28;20451;-73
2022/08/26 14:17:18;;;;;;;22.60;6.13;;;;;;;;;;5086839;28;20475;-72
2022/08/26 14:19:48;;;;;;;16.40;6.03;;;;;;;;;;5090505;28;21005;-73
2022/08/26 14:22:16;;;;;;;13.00;5.50;;;;;;;;;;5089043;28;20467;-72
2022/08/26 14:24:46;;;;;;;14.53;5.70;;;;;;;;;;5090537;28;20456;-72
2022/08/26 14:27:13;;;;;;;14.37;5.57;;;;;;;;;;5087123;28;20517;-73
2022/08/26 14:29:53;;;;;;;17.07;5.60;;;;;;;;;;5092763;28;20543;-72
2022/08/26 14:32:27;;;;;;;20.23;6.03;;;;;;;;;;5091208;28;20466;-72
2022/08/26 14:34:56;;;;;;;12.53;5.77;;;;;;;;;;5076389;28;20461;-71
2022/08/26 14:37:23;;;;;;;11.37;6.37;;;;;;;;;;5070555;28;20456;-71
2022/08/26 14:39:50;;;;;;;12.87;6.10;;;;;;;;;;5070890;28;20492;-72
2022/08/26 14:42:21;;;;;;;14.27;5.60;;;;;;;;;;5070841;28;20454;-71
2022/08/26 14:44:53;;;;;;;15.50;4.93;;;;;;;;;;5080283;28;20494;-71
2022/08/26 14:47:20;;;;;;;13.83;5.33;;;;;;;;;;5088471;28;20909;-71
2022/08/26 14:49:47;;;;;;;10.93;4.97;;;;;;;;;;5091228;28;20471;-71